Time;durP1;ratioP1;P1;durP2;ratioP2;P2;SDS_P1;SDS_P2;PMS_P1;PMS_P2;Temp;Humidity;BMP_temperature;BMP_pressure;BME280_temperature;BME280_humidity;BME280_pressure;Samples;Min_cycle;Max_cycle;Signal;HPM_P1;HPM_P2
2021/12/24 00:01:00;;;;;;;3.35;3.05;;;22.60;48.80;;;;;;5019545;28;20183;-71
2021/12/24 00:03:26;;;;;;;3.10;2.80;;;22.50;48.70;;;;;;5052704;28;20190;-71
2021/12/24 00:05:52;;;;;;;3.63;3.33;;;22.50;48.80;;;;;;5019415;28;20225;-71
2021/12/24 00:08:18;;;;;;;3.38;3.08;;;22.60;48.80;;;;;;5035746;28;20183;-70
2021/12/24 00:10:48;;;;;;;3.38;3.08;;;22.50;48.70;;;;;;5036104;28;20183;-71
2021/12/24 00:13:16;;;;;;;3.67;2.85;;;22.50;48.70;;;;;;5035869;28;20185;-71
2021/12/24 00:37:21;;;;;;;3.55;2.90;;;22.50;48.90;;;;;;5035213;28;20260;-69
2021/12/24 00:40:15;;;;;;;3.00;2.70;;;22.50;48.90;;;;;;5035466;28;20178;-71
2021/12/24 00:42:35;;;;;;;3.20;2.95;;;22.50;48.80;;;;;;5050842;28;20199;-71
2021/12/24 00:45:02;;;;;;;3.30;3.00;;;22.50;48.90;;;;;;5051704;28;20260;-70
2021/12/24 00:47:27;;;;;;;2.90;2.70;;;22.50;48.80;;;;;;5052697;28;20592;-71
2021/12/24 00:49:54;;;;;;;3.20;2.90;;;22.50;48.80;;;;;;5035198;28;20189;-71
2021/12/24 00:52:44;;;;;;;3.20;2.90;;;22.50;48.80;;;;;;5035327;28;20604;-71
2021/12/24 00:55:09;;;;;;;3.03;2.83;;;22.50;48.90;;;;;;5035007;28;20273;-71
2021/12/24 00:57:47;;;;;;;3.22;2.92;;;22.50;48.80;;;;;;5051298;28;20296;-71
2021/12/24 01:00:17;;;;;;;2.92;2.63;;;22.50;48.80;;;;;;5034988;28;20178;-71
2021/12/24 01:02:44;;;;;;;2.70;2.50;;;22.50;48.90;;;;;;5035189;28;20174;-71
2021/12/24 01:05:11;;;;;;;2.90;2.60;;;22.50;48.90;;;;;;5018418;28;20202;-71
2021/12/24 01:07:40;;;;;;;3.33;2.42;;;22.50;48.90;;;;;;5051385;28;20202;-71
2021/12/24 01:10:08;;;;;;;3.65;2.72;;;22.50;48.90;;;;;;5018424;28;20263;-71
2021/12/24 01:12:35;;;;;;;2.97;2.67;;;22.50;48.90;;;;;;5051446;28;20179;-71
2021/12/24 01:15:03;;;;;;;3.05;2.78;;;22.50;48.90;;;;;;5018599;28;20281;-71
2021/12/24 01:17:38;;;;;;;2.60;2.40;;;22.50;48.80;;;;;;5018208;28;20293;-71
2021/12/24 01:20:20;;;;;;;3.00;2.70;;;22.50;48.90;;;;;;5051352;28;20189;-71
2021/12/24 01:25:45;;;;;;;2.85;2.60;;;22.50;48.90;;;;;;5034398;28;20236;-70
2021/12/24 01:39:21;;;;;;;2.80;2.60;;;22.50;48.90;;;;;;5034233;28;20238;-71
2021/12/24 01:44:31;;;;;;;2.75;2.55;;;22.50;48.80;;;;;;5034341;28;20260;-71
2021/12/24 01:47:07;;;;;;;2.80;2.60;;;22.50;48.90;;;;;;5034358;28;20194;-71
2021/12/24 01:49:35;;;;;;;2.70;2.50;;;22.50;48.80;;;;;;5050812;28;20725;-71
2021/12/24 01:52:03;;;;;;;3.03;2.50;;;22.50;48.90;;;;;;5052054;28;20182;-71
2021/12/24 01:54:31;;;;;;;2.75;2.55;;;22.50;48.90;;;;;;5055091;28;20186;-71
2021/12/24 01:56:57;;;;;;;3.15;2.90;;;22.50;48.90;;;;;;5038630;28;20237;-70
2021/12/24 01:59:24;;;;;;;2.85;2.65;;;22.50;48.90;;;;;;5021696;28;20196;-71
2021/12/24 02:01:50;;;;;;;2.58;2.38;;;22.50;48.90;;;;;;5038516;28;20186;-71
2021/12/24 02:04:18;;;;;;;2.70;2.50;;;22.50;48.90;;;;;;5021925;28;20213;-71
2021/12/24 02:06:45;;;;;;;2.67;2.47;;;22.50;48.90;;;;;;5038137;28;20245;-71
2021/12/24 02:09:12;;;;;;;3.13;2.80;;;22.50;48.90;;;;;;5054624;28;20269;-71
2021/12/24 02:11:39;;;;;;;3.78;2.78;;;22.50;48.90;;;;;;5038246;28;20178;-71
2021/12/24 02:14:15;;;;;;;2.50;2.30;;;22.50;48.90;;;;;;5038243;28;20187;-70
2021/12/24 02:30:42;;;;;;;2.40;2.20;;;22.50;48.90;;;;;;5054533;28;20207;-71
2021/12/24 02:33:09;;;;;;;2.97;2.75;;;22.50;48.90;;;;;;5037734;28;20636;-71
2021/12/24 02:35:35;;;;;;;3.22;2.50;;;22.50;48.80;;;;;;5038141;28;20217;-71
2021/12/24 02:38:03;;;;;;;2.85;2.65;;;22.40;48.80;;;;;;5037436;28;20638;-71
2021/12/24 02:40:30;;;;;;;2.63;2.42;;;22.50;48.90;;;;;;5021096;28;20187;-71
2021/12/24 02:42:57;;;;;;;2.53;2.33;;;22.50;48.90;;;;;;5037460;28;20186;-71
2021/12/24 02:45:26;;;;;;;2.17;1.98;;;22.50;48.80;;;;;;5051377;28;20210;-71
2021/12/24 02:56:08;;;;;;;2.50;2.30;;;22.50;49.00;;;;;;5017413;28;20298;-71
2021/12/24 02:58:53;;;;;;;2.85;2.65;;;22.50;49.00;;;;;;5017319;28;20258;-71
2021/12/24 03:01:28;;;;;;;2.53;2.33;;;22.50;48.90;;;;;;5034176;28;20263;-72
2021/12/24 03:03:54;;;;;;;2.38;2.17;;;22.40;48.80;;;;;;5032672;28;20575;-71
2021/12/24 03:06:31;;;;;;;2.33;2.20;;;22.50;48.90;;;;;;5033679;28;20210;-71
2021/12/24 03:08:57;;;;;;;1.98;1.88;;;22.50;48.90;;;;;;5017110;28;20203;-71
2021/12/24 03:11:24;;;;;;;2.50;2.30;;;22.50;48.90;;;;;;5017291;28;20187;-71
2021/12/24 03:13:52;;;;;;;3.17;2.33;;;22.50;48.90;;;;;;5017227;28;20188;-71
2021/12/24 03:16:21;;;;;;;2.60;2.22;;;22.50;48.90;;;;;;5017130;28;20211;-71
2021/12/24 03:18:48;;;;;;;2.88;2.67;;;22.40;48.80;;;;;;5033706;28;20181;-71
2021/12/24 03:21:19;;;;;;;2.72;2.50;;;22.40;48.80;;;;;;5033877;28;20630;-71
2021/12/24 03:26:35;;;;;;;3.38;3.08;;;22.50;49.00;;;;;;5016943;28;20199;-71
2021/12/24 03:29:05;;;;;;;2.85;2.53;;;22.50;48.90;;;;;;5049490;28;20186;-71
2021/12/24 03:31:32;;;;;;;2.97;2.72;;;22.50;48.90;;;;;;5028574;28;20205;-71
2021/12/24 03:33:59;;;;;;;3.20;2.50;;;22.40;48.80;;;;;;5020324;28;20175;-71
2021/12/24 03:36:26;;;;;;;2.90;2.70;;;22.40;48.80;;;;;;5017798;28;20229;-71
2021/12/24 03:38:54;;;;;;;2.72;2.53;;;22.50;48.90;;;;;;5020192;28;20174;-71
2021/12/24 03:41:20;;;;;;;2.88;2.67;;;22.40;48.80;;;;;;5019608;28;20187;-71
2021/12/24 03:43:47;;;;;;;2.78;2.30;;;22.40;48.90;;;;;;5036343;28;20174;-71
2021/12/24 03:46:19;;;;;;;2.47;2.28;;;22.40;48.90;;;;;;5019881;28;20194;-70
2021/12/24 03:49:01;;;;;;;2.70;2.50;;;22.40;48.90;;;;;;5019610;28;20186;-71
2021/12/24 03:51:41;;;;;;;2.50;2.30;;;22.50;48.90;;;;;;5020137;28;20254;-71
2021/12/24 03:56:52;;;;;;;2.60;2.40;;;22.40;48.80;;;;;;5036091;28;20206;-71
2021/12/24 03:59:50;;;;;;;3.10;2.90;;;22.40;48.80;;;;;;5053670;28;20197;-71
2021/12/24 04:02:36;;;;;;;2.90;2.70;;;22.40;48.80;;;;;;5038981;28;20273;-71
2021/12/24 04:05:24;;;;;;;2.00;1.90;;;22.40;48.80;;;;;;5039213;28;20221;-71
2021/12/24 04:08:26;;;;;;;2.40;2.20;;;22.40;48.80;;;;;;4992017;28;20198;-71
2021/12/24 04:11:15;;;;;;;3.13;2.72;;;22.40;48.80;;;;;;5000378;28;20720;-71
2021/12/24 04:13:44;;;;;;;2.65;2.45;;;22.40;48.60;;;;;;5036087;28;20233;-71
2021/12/24 04:16:10;;;;;;;2.78;2.53;;;22.40;48.70;;;;;;5035288;28;20221;-71
2021/12/24 04:19:34;;;;;;;2.28;2.08;;;22.40;48.80;;;;;;5020391;28;20710;-70
2021/12/24 04:27:30;;;;;;;3.30;3.00;;;22.40;48.80;;;;;;4955921;28;20292;-72
2021/12/24 04:30:07;;;;;;;3.25;2.85;;;22.40;48.70;;;;;;4956464;28;20182;-71
2021/12/24 04:32:52;;;;;;;2.60;2.40;;;22.40;48.70;;;;;;5003783;28;20190;-71
2021/12/24 04:51:45;;;;;;;2.40;2.20;;;22.40;48.70;;;;;;5035127;28;20182;-71
2021/12/24 05:02:55;;;;;;;3.20;2.90;;;22.40;48.80;;;;;;5035316;28;20193;-71
2021/12/24 05:05:37;;;;;;;2.70;2.50;;;22.40;48.80;;;;;;5019029;28;20311;-71
2021/12/24 05:10:38;;;;;;;2.35;2.15;;;22.40;48.70;;;;;;5034782;28;20199;-71
2021/12/24 05:13:12;;;;;;;2.42;2.22;;;22.40;48.80;;;;;;5034747;28;20178;-71
2021/12/24 05:22:20;;;;;;;2.35;2.15;;;22.30;48.40;;;;;;5074505;28;20203;-70
2021/12/24 05:24:45;;;;;;;2.28;2.08;;;22.30;48.70;;;;;;5074484;28;20237;-70
2021/12/24 05:27:11;;;;;;;2.20;2.00;;;22.40;48.80;;;;;;5084852;28;20287;-70
2021/12/24 05:29:37;;;;;;;2.40;2.20;;;22.40;48.70;;;;;;5094551;28;20180;-70
2021/12/24 05:32:04;;;;;;;2.33;2.13;;;22.40;48.70;;;;;;5094584;28;20180;-70
2021/12/24 05:34:30;;;;;;;2.67;2.47;;;22.40;48.70;;;;;;5078143;28;20180;-70
2021/12/24 05:36:56;;;;;;;3.15;2.83;;;22.40;48.70;;;;;;5094956;28;20735;-73
2021/12/24 05:39:22;;;;;;;3.05;2.83;;;22.40;48.80;;;;;;5111223;28;20559;-73
2021/12/24 05:41:50;;;;;;;2.83;2.63;;;22.40;48.60;;;;;;5077993;28;20202;-73
2021/12/24 05:44:17;;;;;;;2.80;2.60;;;22.40;48.70;;;;;;5094813;28;20208;-72
2021/12/24 05:46:48;;;;;;;3.13;2.83;;;22.40;48.70;;;;;;5111507;28;20200;-73
2021/12/24 05:49:38;;;;;;;3.05;2.75;;;22.40;48.70;;;;;;5094329;28;20659;-73
2021/12/24 05:52:23;;;;;;;2.20;2.08;;;22.40;48.70;;;;;;5111890;28;20195;-73
2021/12/24 05:54:55;;;;;;;2.55;2.35;;;22.30;48.60;;;;;;5111628;28;20176;-73
2021/12/24 05:57:21;;;;;;;2.55;2.35;;;22.30;48.60;;;;;;5111617;28;20208;-71
2021/12/24 05:59:47;;;;;;;2.30;2.10;;;22.40;48.70;;;;;;5094275;28;20211;-73
2021/12/24 06:02:13;;;;;;;2.78;2.58;;;22.30;48.60;;;;;;5094364;28;20184;-73
2021/12/24 06:04:39;;;;;;;2.60;2.40;;;22.30;48.60;;;;;;5112427;28;20215;-73
2021/12/24 06:07:05;;;;;;;2.60;2.40;;;22.40;48.70;;;;;;5089979;28;20203;-73
2021/12/24 06:09:31;;;;;;;2.42;2.17;;;22.40;48.70;;;;;;5090317;28;20260;-73
2021/12/24 06:11:57;;;;;;;3.00;2.70;;;22.40;48.70;;;;;;5092119;28;20337;-73
2021/12/24 06:14:23;;;;;;;2.78;2.58;;;22.40;48.70;;;;;;5090279;28;20189;-73
2021/12/24 06:17:01;;;;;;;2.88;2.67;;;22.40;48.60;;;;;;5091870;28;20205;-73
2021/12/24 06:19:28;;;;;;;3.28;2.97;;;22.40;48.60;;;;;;5091236;28;20191;-73
2021/12/24 06:21:58;;;;;;;2.75;2.55;;;22.40;48.50;;;;;;5094315;28;20188;-73
2021/12/24 06:24:24;;;;;;;3.58;3.28;;;22.30;48.60;;;;;;5112307;28;20203;-73
2021/12/24 06:26:51;;;;;;;3.30;2.35;;;22.40;48.40;;;;;;5111310;28;20204;-73
2021/12/24 06:29:18;;;;;;;3.03;2.83;;;22.30;48.40;;;;;;5094187;28;20188;-73
2021/12/24 06:31:44;;;;;;;2.67;2.47;;;22.30;48.50;;;;;;5111317;28;20263;-73
2021/12/24 06:34:10;;;;;;;2.72;2.50;;;22.30;48.50;;;;;;5111268;28;20564;-73
2021/12/24 06:36:36;;;;;;;2.60;2.40;;;22.30;48.60;;;;;;5112294;28;20231;-72
2021/12/24 06:39:05;;;;;;;2.22;2.03;;;22.30;48.70;;;;;;5095438;28;20203;-72
2021/12/24 06:41:31;;;;;;;2.35;2.15;;;22.40;48.40;;;;;;5097726;28;20184;-74
2021/12/24 06:43:58;;;;;;;2.50;2.30;;;22.40;48.60;;;;;;5080749;28;20612;-72
2021/12/24 06:46:24;;;;;;;2.55;2.35;;;22.40;48.40;;;;;;5080700;28;20199;-72
2021/12/24 06:48:56;;;;;;;2.40;2.20;;;22.30;48.40;;;;;;5114583;28;20176;-72
2021/12/24 06:51:26;;;;;;;2.58;2.38;;;22.40;48.60;;;;;;5097742;28;20172;-72
2021/12/24 06:53:53;;;;;;;2.53;2.33;;;22.40;48.60;;;;;;5115973;28;20253;-72
2021/12/24 06:56:21;;;;;;;2.90;2.63;;;22.40;48.60;;;;;;5097767;28;20221;-72
2021/12/24 06:58:49;;;;;;;3.60;3.30;;;22.40;48.70;;;;;;5114123;28;20176;-72
2021/12/24 07:01:17;;;;;;;3.35;3.10;;;22.40;48.60;;;;;;5097260;27;20239;-72
2021/12/24 07:03:43;;;;;;;4.47;3.13;;;22.40;48.60;;;;;;5083512;28;20268;-72
2021/12/24 07:06:09;;;;;;;3.10;2.80;;;22.40;48.60;;;;;;5095182;28;20292;-72
2021/12/24 07:08:35;;;;;;;3.15;2.90;;;22.40;48.70;;;;;;5060568;28;20208;-72
2021/12/24 07:11:02;;;;;;;3.08;2.83;;;22.40;48.70;;;;;;5077250;28;20181;-72
2021/12/24 07:13:28;;;;;;;2.85;2.65;;;22.40;48.70;;;;;;5060510;28;20220;-72
2021/12/24 07:15:54;;;;;;;2.88;2.67;;;22.40;48.70;;;;;;5077174;28;20177;-71
2021/12/24 07:18:20;;;;;;;3.35;3.05;;;22.40;48.60;;;;;;5076552;28;20199;-72
2021/12/24 07:20:47;;;;;;;3.13;2.83;;;22.40;48.40;;;;;;5076849;28;20210;-72
2021/12/24 07:23:13;;;;;;;2.40;2.15;;;22.40;48.60;;;;;;5095169;28;20216;-72
2021/12/24 07:25:39;;;;;;;2.13;2.00;;;22.40;48.40;;;;;;5093620;28;20232;-72
2021/12/24 07:28:05;;;;;;;2.58;2.38;;;22.40;48.60;;;;;;5059848;28;20245;-72
2021/12/24 07:30:32;;;;;;;2.88;2.67;;;22.40;48.50;;;;;;5078565;28;20176;-72
2021/12/24 07:32:58;;;;;;;2.33;2.13;;;22.40;48.70;;;;;;5097158;28;20278;-73
2021/12/24 07:35:24;;;;;;;2.40;2.20;;;22.40;48.70;;;;;;5097572;28;20566;-73
2021/12/24 07:37:50;;;;;;;2.20;2.10;;;22.40;48.70;;;;;;5113188;28;20199;-73
2021/12/24 07:40:19;;;;;;;2.33;2.13;;;22.40;48.80;;;;;;5114024;28;20258;-72
2021/12/24 07:42:47;;;;;;;2.78;2.42;;;22.40;48.90;;;;;;5115171;28;20241;-73
2021/12/24 07:45:16;;;;;;;3.70;2.33;;;22.30;48.80;;;;;;5114870;28;20207;-72
2021/12/24 07:47:43;;;;;;;2.20;2.00;;;22.40;49.00;;;;;;5096271;28;20253;-73
2021/12/24 07:53:02;;;;;;;3.17;2.88;;;22.40;49.00;;;;;;5062652;28;20261;-72
2021/12/24 07:55:28;;;;;;;3.05;2.80;;;22.30;48.80;;;;;;5059684;28;20188;-72
2021/12/24 07:57:54;;;;;;;3.90;2.42;;;22.40;49.50;;;;;;5076107;28;20209;-73
2021/12/24 08:00:26;;;;;;;2.40;2.20;;;22.30;48.80;;;;;;5076443;28;20242;-73
2021/12/24 08:02:53;;;;;;;2.42;2.30;;;22.30;49.00;;;;;;5076068;28;20183;-72
2021/12/24 08:05:22;;;;;;;2.53;2.33;;;22.30;48.90;;;;;;5059318;28;20233;-72
2021/12/24 08:07:49;;;;;;;2.25;2.05;;;22.30;48.90;;;;;;5075657;28;20205;-73
2021/12/24 08:10:15;;;;;;;2.47;2.30;;;22.30;48.90;;;;;;5059429;28;20181;-73
2021/12/24 08:12:41;;;;;;;2.25;2.05;;;22.30;49.00;;;;;;5075754;28;20589;-72
2021/12/24 08:15:08;;;;;;;2.47;2.35;;;22.30;49.00;;;;;;5075885;28;20181;-72
2021/12/24 08:17:35;;;;;;;2.33;2.13;;;22.30;49.00;;;;;;5093348;28;20208;-72
2021/12/24 08:20:05;;;;;;;2.10;2.00;;;22.30;49.10;;;;;;5059026;28;20268;-72
2021/12/24 08:22:32;;;;;;;2.40;2.20;;;22.30;49.00;;;;;;5059412;28;20176;-73
2021/12/24 08:24:58;;;;;;;2.35;2.15;;;22.30;49.00;;;;;;5075466;28;20209;-72
2021/12/24 08:27:23;;;;;;;2.22;2.03;;;22.40;49.10;;;;;;5058972;28;20683;-72
2021/12/24 08:29:49;;;;;;;2.30;2.10;;;22.30;49.00;;;;;;5075549;28;20566;-73
2021/12/24 08:32:15;;;;;;;2.47;1.75;;;22.30;49.10;;;;;;5058915;28;20184;-72
2021/12/24 08:34:43;;;;;;;2.35;2.15;;;22.30;49.10;;;;;;5075541;28;20192;-73
2021/12/24 08:37:09;;;;;;;2.47;2.28;;;22.30;49.10;;;;;;5075230;28;20292;-72
2021/12/24 08:39:35;;;;;;;2.38;2.17;;;22.30;49.10;;;;;;5058531;28;20318;-72
2021/12/24 08:42:01;;;;;;;2.47;2.28;;;22.30;49.10;;;;;;5058900;28;20283;-72
2021/12/24 08:44:31;;;;;;;2.47;2.28;;;22.30;49.10;;;;;;5077955;28;20200;-72
2021/12/24 08:47:01;;;;;;;2.20;2.00;;;22.30;49.10;;;;;;5075202;28;20675;-72
2021/12/24 08:49:29;;;;;;;2.60;1.83;;;22.30;49.10;;;;;;5075126;28;20212;-72
2021/12/24 08:51:55;;;;;;;2.92;2.10;;;22.30;49.10;;;;;;5075327;28;20227;-72
2021/12/24 08:54:21;;;;;;;2.17;1.98;;;22.30;49.10;;;;;;5127528;27;20187;-72
2021/12/24 08:56:52;;;;;;;1.80;1.70;;;22.30;49.20;;;;;;5098960;27;20203;-72
2021/12/24 08:59:18;;;;;;;1.90;1.80;;;22.30;49.10;;;;;;5115624;27;20241;-72
2021/12/24 09:01:44;;;;;;;1.90;1.80;;;22.30;49.20;;;;;;5114752;27;20226;-72
2021/12/24 09:04:13;;;;;;;2.28;1.77;;;22.30;49.20;;;;;;5092072;28;20247;-73
2021/12/24 09:06:40;;;;;;;1.98;1.88;;;22.30;49.30;;;;;;5081761;28;20288;-72
2021/12/24 09:09:10;;;;;;;2.30;2.10;;;22.30;49.20;;;;;;5074668;28;20185;-72
2021/12/24 09:11:40;;;;;;;2.55;1.98;;;22.30;49.10;;;;;;5074998;28;20188;-73
2021/12/24 09:14:07;;;;;;;2.10;1.90;;;22.30;49.20;;;;;;5074768;28;20165;-72
2021/12/24 09:16:36;;;;;;;2.42;2.22;;;22.30;49.20;;;;;;5074564;28;20235;-72
2021/12/24 09:19:08;;;;;;;2.60;2.40;;;22.30;49.20;;;;;;5091292;28;20264;-72
2021/12/24 09:21:35;;;;;;;2.33;2.13;;;22.30;49.20;;;;;;5074643;28;20241;-73
2021/12/24 09:24:08;;;;;;;2.40;2.17;;;22.30;49.20;;;;;;5074592;28;20271;-73
2021/12/24 09:26:36;;;;;;;2.55;2.00;;;22.30;49.20;;;;;;5074625;28;20193;-73
2021/12/24 09:29:07;;;;;;;3.00;2.20;;;22.30;49.20;;;;;;5057820;28;20187;-72
2021/12/24 09:31:34;;;;;;;2.10;1.90;;;22.30;49.20;;;;;;5092592;28;20169;-72
2021/12/24 09:34:00;;;;;;;2.10;1.90;;;22.30;49.20;;;;;;5074561;28;20173;-72
2021/12/24 09:36:28;;;;;;;2.40;2.03;;;22.30;49.20;;;;;;5074395;28;20201;-72
2021/12/24 09:38:59;;;;;;;1.98;1.88;;;22.30;49.20;;;;;;5092384;28;20549;-71
2021/12/24 09:41:25;;;;;;;2.30;2.10;;;22.30;49.30;;;;;;5074647;28;20199;-73
2021/12/24 09:43:57;;;;;;;1.80;1.70;;;22.30;49.30;;;;;;5092377;28;20206;-74
2021/12/24 09:46:26;;;;;;;7.25;2.10;;;22.30;49.30;;;;;;5074309;28;20225;-74
2021/12/24 09:48:52;;;;;;;2.15;1.95;;;22.30;49.50;;;;;;5057864;28;20184;-74
2021/12/24 09:51:20;;;;;;;3.50;2.10;;;22.40;49.50;;;;;;5074758;28;20184;-71
2021/12/24 09:53:46;;;;;;;2.65;1.95;;;22.50;49.60;;;;;;5057693;28;20177;-73
2021/12/24 09:56:12;;;;;;;3.83;1.95;;;22.50;49.80;;;;;;5057450;28;20185;-73
2021/12/24 09:58:37;;;;;;;6.38;2.33;;;22.50;50.00;;;;;;5074101;28;20258;-74
2021/12/24 10:01:03;;;;;;;3.35;2.10;;;22.50;50.20;;;;;;5074029;28;20251;-74
2021/12/24 10:03:32;;;;;;;4.57;2.38;;;22.40;50.20;;;;;;5092371;28;20188;-74
2021/12/24 10:05:58;;;;;;;2.92;2.17;;;22.50;50.60;;;;;;5057612;28;20200;-74
2021/12/24 10:08:26;;;;;;;2.97;2.15;;;22.50;50.90;;;;;;5074222;28;20617;-74
2021/12/24 10:11:06;;;;;;;4.80;2.33;;;22.50;51.10;;;;;;5057651;28;20181;-74
2021/12/24 10:13:46;;;;;;;3.53;2.30;;;22.50;51.00;;;;;;5058935;28;20181;-73
2021/12/24 10:16:22;;;;;;;2.95;2.28;;;22.50;50.90;;;;;;5078281;28;20257;-73
2021/12/24 10:18:55;;;;;;;2.70;1.88;;;22.50;51.00;;;;;;5077821;28;20683;-74
2021/12/24 10:21:26;;;;;;;5.00;2.78;;;22.50;51.00;;;;;;5078058;28;20307;-74
2021/12/24 10:23:56;;;;;;;5.40;2.65;;;22.50;51.10;;;;;;5082942;28;20189;-74
2021/12/24 10:26:28;;;;;;;2.53;2.33;;;22.50;51.00;;;;;;5077645;28;20700;-73
2021/12/24 10:29:10;;;;;;;5.55;2.90;;;22.50;51.10;;;;;;5061006;28;20180;-74
2021/12/24 10:31:48;;;;;;;5.18;3.10;;;22.60;51.00;;;;;;5077726;28;20169;-73
2021/12/24 10:34:20;;;;;;;5.03;2.78;;;22.50;51.00;;;;;;5078156;28;20199;-73
2021/12/24 10:37:05;;;;;;;6.50;2.88;;;22.50;51.10;;;;;;5060854;28;20214;-72
2021/12/24 10:39:48;;;;;;;6.25;3.25;;;22.50;51.00;;;;;;5077611;28;20170;-73
2021/12/24 10:42:39;;;;;;;9.13;3.08;;;22.50;50.90;;;;;;5077610;28;20208;-73
2021/12/24 10:45:23;;;;;;;6.55;3.38;;;22.50;51.00;;;;;;5061255;28;20216;-74
2021/12/24 10:47:49;;;;;;;6.45;3.67;;;22.60;51.10;;;;;;5060781;28;20208;-73
2021/12/24 10:55:31;;;;;;;6.53;3.88;;;22.50;51.20;;;;;;5077769;28;20191;-74
2021/12/24 10:57:59;;;;;;;6.10;3.33;;;22.50;51.20;;;;;;5077244;28;20298;-74
2021/12/24 11:00:38;;;;;;;3.22;2.67;;;22.50;51.20;;;;;;5077465;28;20326;-73
2021/12/24 11:03:19;;;;;;;3.67;2.53;;;22.50;51.20;;;;;;5094272;28;20193;-73
2021/12/24 11:05:49;;;;;;;4.68;3.00;;;22.50;51.20;;;;;;5060408;28;20244;-74
2021/12/24 11:08:27;;;;;;;6.40;3.03;;;22.50;51.20;;;;;;5076838;28;20201;-74
2021/12/24 11:11:00;;;;;;;5.80;2.85;;;22.50;51.20;;;;;;5077504;28;20256;-73
2021/12/24 11:13:40;;;;;;;6.35;3.58;;;22.50;51.30;;;;;;5060535;28;20271;-73
2021/12/24 11:16:09;;;;;;;5.95;3.40;;;22.50;51.40;;;;;;5060319;28;20242;-73
2021/12/24 11:18:45;;;;;;;6.05;3.58;;;22.50;51.40;;;;;;5077176;28;20189;-73
2021/12/24 11:21:30;;;;;;;5.22;3.45;;;22.50;51.30;;;;;;5076948;28;20176;-73
2021/12/24 11:23:56;;;;;;;7.13;3.22;;;22.50;51.30;;;;;;5060248;28;20193;-73
2021/12/24 11:26:27;;;;;;;4.13;2.90;;;22.50;51.30;;;;;;5076103;28;20251;-73
2021/12/24 11:28:54;;;;;;;4.00;2.72;;;22.50;51.30;;;;;;5059993;28;20185;-73
2021/12/24 11:31:23;;;;;;;4.75;2.80;;;22.50;51.30;;;;;;5077342;28;20185;-74
2021/12/24 11:33:54;;;;;;;4.95;2.97;;;22.50;51.40;;;;;;5093304;28;20230;-73
2021/12/24 11:36:26;;;;;;;3.40;2.83;;;22.50;51.50;;;;;;5076475;28;20201;-73
2021/12/24 11:39:07;;;;;;;5.55;2.90;;;22.50;51.30;;;;;;5076687;28;20177;-73
2021/12/24 11:41:33;;;;;;;5.82;3.40;;;22.50;51.40;;;;;;5076596;28;20607;-73
2021/12/24 11:44:05;;;;;;;4.35;2.97;;;22.50;51.30;;;;;;5061092;28;20295;-73
2021/12/24 11:46:31;;;;;;;6.72;3.03;;;22.50;51.40;;;;;;5076645;28;20209;-73
2021/12/24 11:48:56;;;;;;;4.70;2.90;;;22.50;51.40;;;;;;5076176;28;20173;-72
2021/12/24 11:51:29;;;;;;;4.50;2.97;;;22.50;51.40;;;;;;5067371;28;20184;-73
2021/12/24 11:54:03;;;;;;;4.13;2.88;;;22.50;51.30;;;;;;5075429;28;20319;-74
2021/12/24 11:56:48;;;;;;;4.15;2.95;;;22.50;51.20;;;;;;5091514;28;20217;-74
2021/12/24 11:59:14;;;;;;;4.43;2.65;;;22.50;51.20;;;;;;5092422;28;20176;-74
2021/12/24 12:01:44;;;;;;;3.85;3.03;;;22.50;51.20;;;;;;5081921;28;20198;-73
2021/12/24 12:04:22;;;;;;;3.47;2.80;;;22.50;51.30;;;;;;5095107;28;20180;-74
2021/12/24 12:06:50;;;;;;;5.07;2.95;;;22.50;51.30;;;;;;5088683;28;20202;-73
2021/12/24 12:09:16;;;;;;;3.90;2.80;;;22.50;51.40;;;;;;5057983;28;20188;-72
2021/12/24 12:11:58;;;;;;;6.60;2.83;;;22.50;51.30;;;;;;5075326;28;20173;-73
2021/12/24 12:14:27;;;;;;;4.72;3.00;;;22.50;51.20;;;;;;5058804;28;20173;-72
2021/12/24 12:16:57;;;;;;;4.05;2.72;;;22.50;51.20;;;;;;5076313;28;20205;-72
2021/12/24 12:19:38;;;;;;;4.20;2.97;;;22.50;51.20;;;;;;5093190;28;20207;-72
2021/12/24 12:25:29;;;;;;;3.97;2.80;;;22.40;51.10;;;;;;5088093;28;20199;-72
2021/12/24 12:27:58;;;;;;;2.92;2.55;;;22.50;51.20;;;;;;5111754;28;20200;-73
2021/12/24 12:30:29;;;;;;;3.20;2.90;;;22.50;51.20;;;;;;5077972;28;20180;-73
2021/12/24 12:33:24;;;;;;;5.40;2.90;;;22.50;51.20;;;;;;5111905;28;20164;-72
2021/12/24 12:36:06;;;;;;;3.90;3.28;;;22.40;51.10;;;;;;5112846;28;20233;-73
2021/12/24 12:38:38;;;;;;;3.10;2.80;;;22.40;51.10;;;;;;5094753;28;20179;-72
2021/12/24 12:41:33;;;;;;;4.25;3.05;;;22.40;51.10;;;;;;5078145;28;20192;-73
2021/12/24 12:44:19;;;;;;;5.10;3.05;;;22.40;51.20;;;;;;5112984;28;20176;-73
2021/12/24 12:46:47;;;;;;;3.78;3.08;;;22.40;51.20;;;;;;5094643;28;20219;-73
2021/12/24 12:49:28;;;;;;;5.93;3.88;;;22.50;51.30;;;;;;5094683;28;20187;-73
2021/12/24 12:51:57;;;;;;;5.25;4.57;;;22.50;51.40;;;;;;5094666;28;20168;-73
2021/12/24 12:54:48;;;;;;;4.97;4.10;;;22.50;51.30;;;;;;5094615;28;20191;-73
2021/12/24 12:57:33;;;;;;;4.20;3.70;;;22.50;51.40;;;;;;5111748;28;20219;-73
2021/12/24 13:00:08;;;;;;;5.57;4.20;;;22.50;51.40;;;;;;5095384;28;20176;-73
2021/12/24 13:02:56;;;;;;;4.55;3.80;;;22.50;51.50;;;;;;5095258;28;20190;-73
2021/12/24 13:05:26;;;;;;;4.88;3.83;;;22.50;51.50;;;;;;5095011;28;20203;-73
2021/12/24 13:07:53;;;;;;;5.10;3.88;;;22.50;51.70;;;;;;5112200;28;20196;-73
2021/12/24 13:10:19;;;;;;;8.27;4.10;;;22.50;51.60;;;;;;5094971;28;20176;-73
2021/12/24 13:12:45;;;;;;;4.63;3.45;;;22.50;51.70;;;;;;5078001;28;20219;-73
2021/12/24 13:15:16;;;;;;;4.35;3.60;;;22.50;51.60;;;;;;5095044;28;20582;-73
2021/12/24 13:17:46;;;;;;;4.45;3.70;;;22.50;51.60;;;;;;5094714;28;20636;-73
2021/12/24 13:22:39;;;;;;;4.82;3.17;;;22.50;51.60;;;;;;5082525;28;20283;-73
2021/12/24 13:25:13;;;;;;;4.20;3.08;;;22.50;51.60;;;;;;5057868;28;20248;-73
2021/12/24 13:27:52;;;;;;;4.72;2.80;;;22.50;51.60;;;;;;5074655;28;20350;-73
2021/12/24 13:30:20;;;;;;;3.40;2.83;;;22.50;51.70;;;;;;5074348;28;20180;-73
2021/12/24 13:32:57;;;;;;;3.58;2.78;;;22.50;51.60;;;;;;5092584;28;20644;-71
2021/12/24 13:35:26;;;;;;;4.10;3.10;;;22.50;51.60;;;;;;5074458;28;20207;-73
2021/12/24 13:37:54;;;;;;;3.33;2.85;;;22.50;51.60;;;;;;5091086;28;20257;-73
2021/12/24 13:40:34;;;;;;;3.60;2.80;;;22.50;51.70;;;;;;5091440;28;20675;-72
2021/12/24 13:43:08;;;;;;;4.75;3.00;;;22.50;51.60;;;;;;5091260;28;20248;-72
2021/12/24 13:45:38;;;;;;;4.20;3.63;;;22.50;51.70;;;;;;5092447;28;20205;-74
2021/12/24 13:48:17;;;;;;;5.40;3.17;;;22.50;51.80;;;;;;5073595;28;20205;-75
2021/12/24 13:56:24;;;;;;;2.92;2.50;;;22.50;51.70;;;;;;5092244;28;20224;-73
2021/12/24 13:58:58;;;;;;;3.95;2.63;;;22.50;51.80;;;;;;5074086;28;20239;-73
2021/12/24 14:01:27;;;;;;;3.78;2.78;;;22.50;51.70;;;;;;5091215;28;20176;-73
2021/12/24 14:03:55;;;;;;;2.92;2.72;;;22.50;51.70;;;;;;5074486;28;20192;-73
2021/12/24 14:06:33;;;;;;;12.80;3.35;;;22.50;51.70;;;;;;5074164;28;20307;-73
2021/12/24 14:09:15;;;;;;;4.97;2.88;;;22.50;51.60;;;;;;5090847;28;20272;-74
2021/12/24 14:11:42;;;;;;;3.20;2.85;;;22.40;51.80;;;;;;5091191;28;20208;-74
2021/12/24 14:14:16;;;;;;;3.08;2.60;;;22.40;51.80;;;;;;5092259;28;20177;-73
2021/12/24 14:20:09;;;;;;;4.78;2.63;;;22.50;51.70;;;;;;5092055;28;20204;-76
2021/12/24 14:22:15;;;;;;;4.15;2.83;;;22.50;51.70;;;;;;5083836;28;20197;-71
2021/12/24 14:24:53;;;;;;;2.55;2.35;;;22.50;51.60;;;;;;5090770;28;20205;-72
2021/12/24 14:27:21;;;;;;;5.03;3.00;;;22.50;51.50;;;;;;5087338;28;20201;-72
2021/12/24 14:29:55;;;;;;;3.38;3.08;;;22.50;51.40;;;;;;5057117;28;20188;-72
2021/12/24 14:32:34;;;;;;;6.85;3.03;;;22.50;51.40;;;;;;5073995;28;20168;-76
2021/12/24 14:35:15;;;;;;;3.38;3.08;;;22.50;51.30;;;;;;5092382;28;20248;-77
2021/12/24 14:38:17;;;;;;;2.90;2.70;;;22.50;51.20;;;;;;5091694;28;20204;-76
2021/12/24 14:40:55;;;;;;;2.60;2.40;;;22.50;51.10;;;;;;5031871;28;20225;-76
2021/12/24 14:43:21;;;;;;;2.97;2.50;;;22.50;51.00;;;;;;5073837;28;20193;-75
2021/12/24 14:45:49;;;;;;;3.28;2.42;;;22.50;51.00;;;;;;5074211;28;20262;-76
2021/12/24 14:48:26;;;;;;;2.85;2.58;;;22.50;50.90;;;;;;5079330;28;20197;-76
2021/12/24 14:51:08;;;;;;;3.13;2.80;;;22.40;50.80;;;;;;5074229;28;20268;-76
2021/12/24 14:53:43;;;;;;;3.45;2.97;;;22.50;50.90;;;;;;5073583;28;20685;-76
2021/12/24 14:56:16;;;;;;;3.35;2.92;;;22.50;50.80;;;;;;5079707;28;20212;-72
2021/12/24 14:58:55;;;;;;;3.00;2.80;;;22.40;50.70;;;;;;5093833;28;20168;-72
2021/12/24 15:01:28;;;;;;;2.60;2.40;;;22.50;50.80;;;;;;5110266;28;20177;-72
2021/12/24 15:03:58;;;;;;;2.50;2.28;;;22.40;50.60;;;;;;5082421;28;20190;-72
2021/12/24 15:06:45;;;;;;;2.45;2.20;;;22.40;50.60;;;;;;5080591;28;20209;-70
2021/12/24 15:09:11;;;;;;;3.92;2.70;;;22.50;50.70;;;;;;5093771;28;20295;-72
2021/12/24 15:11:37;;;;;;;3.28;3.03;;;22.50;50.60;;;;;;5093915;28;20264;-72
2021/12/24 15:14:09;;;;;;;4.53;3.30;;;22.50;50.60;;;;;;5074376;28;20192;-72
2021/12/24 15:16:42;;;;;;;3.22;2.92;;;22.40;50.50;;;;;;5060165;28;20624;-73